Time;durP1;ratioP1;P1;durP2;ratioP2;P2;SDS_P1;SDS_P2;PMS_P1;PMS_P2;Temp;Humidity;BMP_temperature;BMP_pressure;BME280_temperature;BME280_humidity;BME280_pressure;Samples;Min_cycle;Max_cycle;Signal;HPM_P1;HPM_P2
2022/02/08 00:01:29;;;;;;;16.15;4.60;;;6.10;99.90;;;;;;5054288;28;20045;-72
2022/02/08 00:03:54;;;;;;;16.15;3.90;;;6.10;99.90;;;;;;5062065;28;20067;-71
2022/02/08 00:06:37;;;;;;;18.50;5.30;;;6.00;99.90;;;;;;5072329;28;20063;-71
2022/02/08 00:09:03;;;;;;;;;;;6.00;99.90;;;;;;5037254;28;20090;-71
2022/02/08 00:11:28;;;;;;;18.70;5.57;;;6.00;99.90;;;;;;5053485;28;20644;-71
2022/02/08 00:13:54;;;;;;;18.20;5.30;;;6.00;99.90;;;;;;5069324;28;20032;-71
2022/02/08 00:16:20;;;;;;;18.27;5.93;;;6.00;99.90;;;;;;5071949;28;20462;-71
2022/02/08 00:18:45;;;;;;;22.73;6.35;;;5.90;99.90;;;;;;5072332;28;20032;-71
2022/02/08 00:21:11;;;;;;;24.42;5.82;;;5.90;99.90;;;;;;5037860;28;20125;-71
2022/02/08 00:23:36;;;;;;;15.60;5.80;;;5.90;99.90;;;;;;5053733;28;20040;-71
2022/02/08 00:26:02;;;;;;;18.02;6.57;;;5.90;99.90;;;;;;5053447;28;20040;-71
2022/02/08 00:28:28;;;;;;;19.27;6.60;;;5.90;99.90;;;;;;5053325;28;20052;-71
2022/02/08 00:30:54;;;;;;;16.35;5.68;;;5.80;99.90;;;;;;5070025;28;20032;-72
2022/02/08 00:33:19;;;;;;;22.20;6.32;;;5.90;99.90;;;;;;5050453;28;20036;-71
2022/02/08 00:35:45;;;;;;;18.00;5.80;;;5.90;99.90;;;;;;5051393;28;20050;-71
2022/02/08 00:38:12;;;;;;;18.73;6.25;;;5.90;99.90;;;;;;5036580;28;20106;-71
2022/02/08 00:40:38;;;;;;;20.17;6.88;;;5.90;99.90;;;;;;5051748;28;20040;-71
2022/02/08 00:43:05;;;;;;;22.45;6.72;;;5.90;99.90;;;;;;5051516;28;20127;-71
2022/02/08 00:45:46;;;;;;;20.65;6.20;;;5.90;99.90;;;;;;5037374;28;20386;-71
2022/02/08 00:48:19;;;;;;;20.15;6.60;;;5.90;99.90;;;;;;5053421;28;20044;-71
2022/02/08 00:50:50;;;;;;;22.17;7.55;;;5.90;99.90;;;;;;5053040;28;20040;-71
2022/02/08 00:53:17;;;;;;;17.48;5.60;;;5.90;99.90;;;;;;5053027;28;20444;-71
2022/02/08 00:55:42;;;;;;;24.35;6.65;;;5.90;99.90;;;;;;5053915;28;20127;-71
2022/02/08 00:58:08;;;;;;;17.15;6.18;;;5.90;99.90;;;;;;5047891;28;20529;-71
2022/02/08 01:00:35;;;;;;;20.30;6.72;;;5.90;99.90;;;;;;5054212;28;20028;-71
2022/02/08 01:03:02;;;;;;;19.95;5.88;;;5.90;99.90;;;;;;5036977;28;20057;-71
2022/02/08 01:05:28;;;;;;;26.98;8.32;;;5.90;99.90;;;;;;5052227;28;20098;-71
2022/02/08 01:07:53;;;;;;;20.55;7.05;;;5.90;99.90;;;;;;5070853;28;20036;-71
2022/02/08 01:10:22;;;;;;;24.48;7.47;;;6.00;99.90;;;;;;5053401;28;20049;-71
2022/02/08 01:12:48;;;;;;;22.10;6.97;;;6.00;99.90;;;;;;5063770;28;20474;-72
2022/02/08 01:15:16;;;;;;;18.45;6.28;;;6.00;99.90;;;;;;5052107;28;20041;-72
2022/02/08 01:17:42;;;;;;;21.65;6.95;;;6.00;99.90;;;;;;5034159;28;20496;-72
2022/02/08 01:20:13;;;;;;;21.77;7.63;;;6.00;99.90;;;;;;5051610;28;20478;-72
2022/02/08 01:22:41;;;;;;;21.05;6.82;;;6.00;99.90;;;;;;5051625;28;20131;-72
2022/02/08 01:25:11;;;;;;;20.05;7.05;;;6.00;99.90;;;;;;5049375;28;20543;-72
2022/02/08 01:27:44;;;;;;;19.08;6.68;;;6.00;99.90;;;;;;5044279;28;20087;-72
2022/02/08 01:30:16;;;;;;;18.70;6.50;;;6.00;99.90;;;;;;5072872;28;20492;-72
2022/02/08 01:33:17;;;;;;;20.80;7.05;;;6.00;99.90;;;;;;5053244;28;20682;-72
2022/02/08 01:38:13;;;;;;;18.02;6.38;;;6.10;99.90;;;;;;5053291;28;20144;-72
2022/02/08 01:46:12;;;;;;;19.63;6.45;;;6.20;99.90;;;;;;5051092;28;20052;-72
2022/02/08 01:48:48;;;;;;;15.85;6.78;;;6.20;99.90;;;;;;5052193;28;20036;-71
2022/02/08 01:51:15;;;;;;;21.05;7.10;;;6.30;99.90;;;;;;5051519;28;20040;-71
2022/02/08 01:53:41;;;;;;;19.92;6.25;;;6.30;99.90;;;;;;5052946;28;20498;-72
2022/02/08 01:56:07;;;;;;;22.38;7.07;;;6.30;99.90;;;;;;5052349;28;20090;-72
2022/02/08 01:58:32;;;;;;;21.85;6.75;;;6.40;99.90;;;;;;5036488;28;20036;-72
2022/02/08 02:00:58;;;;;;;16.67;6.22;;;6.40;99.90;;;;;;5051946;28;20084;-72
2022/02/08 02:03:23;;;;;;;19.50;6.57;;;6.40;99.90;;;;;;5051612;28;20048;-72
2022/02/08 02:05:52;;;;;;;19.73;6.32;;;6.40;99.90;;;;;;5052695;28;20442;-72
2022/02/08 02:08:19;;;;;;;18.40;6.78;;;6.50;99.90;;;;;;5051947;28;20048;-72
2022/02/08 02:10:44;;;;;;;19.70;7.53;;;6.50;99.90;;;;;;5051873;28;20115;-71
2022/02/08 02:15:54;;;;;;;14.90;6.32;;;6.60;99.90;;;;;;5052543;28;20105;-71
2022/02/08 02:18:20;;;;;;;19.73;6.70;;;6.60;99.90;;;;;;5052122;28;20040;-72
2022/02/08 02:20:45;;;;;;;19.67;6.65;;;6.70;99.90;;;;;;5049567;28;20127;-72
2022/02/08 02:23:11;;;;;;;15.80;6.72;;;6.70;99.90;;;;;;5069636;28;20127;-72
2022/02/08 02:25:36;;;;;;;15.40;5.30;;;6.80;99.90;;;;;;5048385;28;20048;-72
2022/02/08 02:28:05;;;;;;;16.95;6.70;;;6.80;99.90;;;;;;5051312;28;20097;-72
2022/02/08 02:30:32;;;;;;;17.30;7.38;;;6.90;99.90;;;;;;5060862;28;20044;-72
2022/02/08 02:33:01;;;;;;;17.98;8.70;;;6.90;99.90;;;;;;5052073;28;20045;-72
2022/02/08 02:35:28;;;;;;;16.98;8.13;;;6.90;99.90;;;;;;5053709;28;20489;-71
2022/02/08 02:37:55;;;;;;;18.33;7.88;;;7.00;99.90;;;;;;5039311;28;20046;-71
2022/02/08 02:40:23;;;;;;;24.45;8.57;;;7.00;99.90;;;;;;5055591;28;20109;-71
2022/02/08 02:42:50;;;;;;;21.33;9.00;;;7.10;99.90;;;;;;5056029;28;20124;-71
2022/02/08 02:45:16;;;;;;;25.50;9.23;;;7.10;99.90;;;;;;5054045;28;20044;-72
2022/02/08 02:47:41;;;;;;;23.75;9.38;;;7.20;99.90;;;;;;5050992;28;20040;-71
2022/02/08 02:50:09;;;;;;;24.48;9.35;;;7.30;99.90;;;;;;5058394;28;20045;-71
2022/02/08 02:52:35;;;;;;;27.80;10.82;;;7.30;99.90;;;;;;5054877;28;20044;-71
2022/02/08 02:55:02;;;;;;;21.75;9.07;;;7.30;99.90;;;;;;5055565;28;20051;-71
2022/02/08 02:57:28;;;;;;;25.13;10.40;;;7.30;99.90;;;;;;5053006;28;20537;-71
2022/02/08 03:00:04;;;;;;;27.70;11.02;;;7.30;99.90;;;;;;5063064;28;20135;-71
2022/02/08 03:02:40;;;;;;;28.80;10.55;;;7.40;99.90;;;;;;5040976;28;20040;-71
2022/02/08 03:05:58;;;;;;;30.23;10.57;;;7.40;99.90;;;;;;5037677;28;20052;-71
2022/02/08 03:19:08;;;;;;;24.73;9.13;;;7.50;99.90;;;;;;5070477;28;20059;-71
2022/02/08 03:21:33;;;;;;;22.50;9.88;;;7.60;99.90;;;;;;5072801;28;20044;-71
2022/02/08 03:23:59;;;;;;;25.17;10.25;;;7.60;99.90;;;;;;5054558;28;20045;-71
2022/02/08 03:26:24;;;;;;;27.70;9.90;;;7.60;99.90;;;;;;5051226;28;20056;-71
2022/02/08 03:28:50;;;;;;;27.38;10.88;;;7.60;99.90;;;;;;5036913;28;20032;-71
2022/02/08 03:31:15;;;;;;;29.92;10.35;;;7.60;99.90;;;;;;5045700;28;20045;-71
2022/02/08 03:33:45;;;;;;;26.55;10.75;;;7.60;99.90;;;;;;5051689;28;20079;-71
2022/02/08 03:36:10;;;;;;;32.30;11.02;;;7.60;99.90;;;;;;5046467;28;20048;-71
2022/02/08 03:38:43;;;;;;;28.48;10.40;;;7.70;99.90;;;;;;5054787;28;20114;-71
2022/02/08 03:41:10;;;;;;;27.08;10.10;;;7.70;99.90;;;;;;5054448;28;20044;-71
2022/02/08 03:43:40;;;;;;;29.75;10.57;;;7.70;99.90;;;;;;5052366;28;20517;-71
2022/02/08 03:46:11;;;;;;;26.90;10.32;;;7.70;99.90;;;;;;5072346;28;20285;-71
2022/02/08 03:48:39;;;;;;;28.95;9.73;;;7.80;99.90;;;;;;5053100;28;20040;-71
2022/02/08 03:51:12;;;;;;;22.25;8.85;;;7.80;99.90;;;;;;5055157;28;20047;-71
2022/02/08 03:53:42;;;;;;;26.15;9.48;;;7.80;99.90;;;;;;5061523;28;20036;-71
2022/02/08 03:56:09;;;;;;;23.60;7.38;;;7.80;99.90;;;;;;5054842;28;20468;-71
2022/02/08 03:58:34;;;;;;;25.85;8.32;;;7.90;99.90;;;;;;5053275;28;20567;-71
2022/02/08 04:01:26;;;;;;;21.08;7.93;;;7.90;99.90;;;;;;5045132;28;20119;-71
2022/02/08 04:04:11;;;;;;;17.42;7.35;;;7.90;99.90;;;;;;5072096;28;20109;-71
2022/02/08 04:06:35;;;;;;;24.60;7.80;;;8.00;99.90;;;;;;5047437;28;20090;-71
2022/02/08 04:09:01;;;;;;;24.63;8.43;;;8.00;99.90;;;;;;5054267;28;20075;-71
2022/02/08 04:11:27;;;;;;;27.83;8.65;;;8.00;99.90;;;;;;5054318;28;20041;-71
2022/02/08 04:14:01;;;;;;;24.08;7.53;;;8.00;99.90;;;;;;5041215;28;20383;-71
2022/02/08 04:16:31;;;;;;;22.30;8.57;;;8.00;99.90;;;;;;5054289;28;20048;-71
2022/02/08 04:19:15;;;;;;;17.90;7.63;;;8.10;99.90;;;;;;5053637;28;20678;-71
2022/02/08 04:38:05;;;;;;;15.07;6.60;;;8.20;99.90;;;;;;5019782;28;20057;-71
2022/02/08 04:43:24;;;;;;;17.30;6.30;;;8.30;99.90;;;;;;5030032;28;20076;-71
2022/02/08 04:46:07;;;;;;;17.95;6.55;;;8.30;99.90;;;;;;5030254;28;20041;-71
2022/02/08 04:51:44;;;;;;;17.98;6.32;;;8.30;99.90;;;;;;4972747;28;20053;-71
2022/02/08 05:26:58;;;;;;;15.38;5.43;;;8.40;99.90;;;;;;5025682;28;20467;-71
2022/02/08 05:30:01;;;;;;;17.98;5.50;;;8.40;99.90;;;;;;5029737;28;20487;-71
2022/02/08 05:45:29;;;;;;;20.48;4.97;;;8.60;99.90;;;;;;5029162;28;20042;-71
2022/02/08 05:47:58;;;;;;;15.40;4.88;;;8.50;99.90;;;;;;5029848;28;20529;-71
2022/02/08 05:51:33;;;;;;;15.45;4.38;;;8.60;99.90;;;;;;5027656;28;20113;-71
2022/02/08 05:53:42;;;;;;;16.27;4.57;;;8.60;99.90;;;;;;5016723;28;20054;-71
2022/02/08 05:56:08;;;;;;;18.55;5.07;;;8.50;99.90;;;;;;5025736;28;20527;-71
2022/02/08 05:58:34;;;;;;;12.38;3.97;;;8.50;99.90;;;;;;5023138;28;20048;-71
2022/02/08 06:01:00;;;;;;;20.17;4.70;;;8.50;99.90;;;;;;5010178;28;20041;-71
2022/02/08 06:03:26;;;;;;;21.85;5.15;;;8.50;99.90;;;;;;5028951;28;20411;-71
2022/02/08 06:05:51;;;;;;;15.50;4.35;;;8.40;99.90;;;;;;5031071;28;20384;-71
2022/02/08 06:08:17;;;;;;;14.27;3.80;;;8.50;99.90;;;;;;5028510;28;20033;-71
2022/02/08 06:11:26;;;;;;;16.90;3.85;;;8.50;99.90;;;;;;5031515;28;20187;-70
2022/02/08 06:13:31;;;;;;;11.48;3.88;;;8.50;99.90;;;;;;5021916;28;20037;-70
2022/02/08 06:16:03;;;;;;;15.10;3.80;;;8.60;99.90;;;;;;5031402;28;20459;-70
2022/02/08 06:18:29;;;;;;;15.97;3.73;;;8.60;99.90;;;;;;5031739;28;20048;-70
2022/02/08 06:20:55;;;;;;;15.63;3.85;;;8.60;99.90;;;;;;5015318;28;20347;-70
2022/02/08 06:23:21;;;;;;;16.45;3.78;;;8.60;99.90;;;;;;5034915;28;20427;-70
2022/02/08 06:25:46;;;;;;;14.32;3.72;;;8.60;99.90;;;;;;5032736;28;20060;-71
2022/02/08 06:28:13;;;;;;;13.70;3.40;;;8.70;99.90;;;;;;5033013;28;20128;-71
2022/02/08 06:30:39;;;;;;;15.30;3.38;;;8.70;99.90;;;;;;5033165;28;20805;-70
2022/02/08 06:33:05;;;;;;;11.93;3.40;;;8.60;99.90;;;;;;5031177;28;20031;-70
2022/02/08 06:35:33;;;;;;;12.90;2.95;;;8.70;99.90;;;;;;5036384;28;20475;-70
2022/02/08 06:38:00;;;;;;;11.10;3.30;;;8.70;99.90;;;;;;5074525;28;20053;-70
2022/02/08 06:40:26;;;;;;;12.52;3.13;;;8.70;99.90;;;;;;5056010;28;20047;-70
2022/02/08 06:42:56;;;;;;;14.52;3.63;;;8.60;99.90;;;;;;5055874;28;20095;-70
2022/02/08 06:45:22;;;;;;;11.75;3.00;;;8.70;99.90;;;;;;5056172;28;20097;-70
2022/02/08 06:47:51;;;;;;;13.10;3.33;;;8.70;99.90;;;;;;5071955;28;20052;-70
2022/02/08 06:50:17;;;;;;;16.73;3.70;;;8.70;99.90;;;;;;5075791;22;20479;-69
2022/02/08 06:52:42;;;;;;;15.10;3.83;;;8.80;99.90;;;;;;5110870;28;20583;-69
2022/02/08 06:55:09;;;;;;;12.57;2.88;;;8.70;99.90;;;;;;5101032;28;20080;-69
2022/02/08 06:57:49;;;;;;;15.13;2.97;;;8.70;99.90;;;;;;5094189;28;20075;-69
2022/02/08 07:00:20;;;;;;;14.90;3.35;;;8.70;99.90;;;;;;5097347;28;20040;-70
2022/02/08 07:02:45;;;;;;;12.02;2.72;;;8.70;99.90;;;;;;5094325;28;20047;-69
2022/02/08 07:05:11;;;;;;;11.25;2.90;;;8.70;99.90;;;;;;5094339;28;20669;-70
2022/02/08 07:07:36;;;;;;;12.55;2.85;;;8.80;99.90;;;;;;5114948;28;20209;-70
2022/02/08 07:10:03;;;;;;;12.52;2.60;;;8.70;99.90;;;;;;5114455;28;20043;-70
2022/02/08 07:12:29;;;;;;;13.48;3.45;;;8.70;99.90;;;;;;5101229;28;20040;-70
2022/02/08 07:14:55;;;;;;;15.70;2.92;;;8.80;99.90;;;;;;5093627;28;20044;-70
2022/02/08 07:17:21;;;;;;;11.85;3.15;;;8.70;99.90;;;;;;5093327;28;20044;-70
2022/02/08 07:19:47;;;;;;;15.88;3.13;;;8.70;99.90;;;;;;5093330;28;20039;-70
2022/02/08 07:22:12;;;;;;;17.30;3.35;;;8.80;99.90;;;;;;5103632;28;20484;-71
2022/02/08 07:24:38;;;;;;;11.82;2.63;;;8.70;99.90;;;;;;5097009;28;20036;-70
2022/02/08 07:27:04;;;;;;;10.65;2.53;;;8.80;99.90;;;;;;5109917;28;20035;-70
2022/02/08 07:29:32;;;;;;;13.60;2.72;;;8.90;99.90;;;;;;5104967;27;20047;-70
2022/02/08 07:32:00;;;;;;;14.00;3.13;;;8.80;99.90;;;;;;5089479;28;20048;-70
2022/02/08 07:35:31;;;;;;;14.63;3.00;;;8.80;99.90;;;;;;5100998;28;20054;-70
2022/02/08 07:37:33;;;;;;;17.25;3.42;;;8.80;99.90;;;;;;5090976;28;20043;-70
2022/02/08 07:40:04;;;;;;;15.30;3.15;;;8.80;99.90;;;;;;5096430;28;20125;-70
2022/02/08 07:42:29;;;;;;;11.68;2.58;;;8.90;99.90;;;;;;5091765;28;20036;-71
2022/02/08 07:44:55;;;;;;;9.20;2.28;;;8.90;99.90;;;;;;5107747;28;20039;-71
2022/02/08 07:47:20;;;;;;;12.98;2.55;;;8.90;99.90;;;;;;5111698;28;20063;-71
2022/02/08 07:49:46;;;;;;;14.50;2.60;;;9.00;99.90;;;;;;5111831;28;20082;-71
2022/02/08 07:52:11;;;;;;;11.50;2.22;;;9.00;99.90;;;;;;5111512;28;20052;-71
2022/02/08 07:54:39;;;;;;;11.43;3.08;;;9.10;99.90;;;;;;5111755;28;20043;-71
2022/02/08 07:57:05;;;;;;;10.70;2.40;;;9.00;99.90;;;;;;5112741;27;20040;-71
2022/02/08 07:59:31;;;;;;;13.45;2.08;;;9.00;99.90;;;;;;5098339;28;20040;-71
2022/02/08 08:01:56;;;;;;;11.35;2.70;;;9.00;99.90;;;;;;5091193;28;20542;-71
2022/02/08 08:04:22;;;;;;;11.25;2.03;;;9.00;99.90;;;;;;5091116;28;20044;-71
2022/02/08 08:06:47;;;;;;;12.93;2.63;;;9.00;99.90;;;;;;5091303;28;20050;-71
2022/02/08 08:09:13;;;;;;;12.00;2.28;;;9.00;99.90;;;;;;5074647;28;20122;-71
2022/02/08 08:11:42;;;;;;;11.52;2.25;;;9.10;99.90;;;;;;5091108;28;20124;-71
2022/02/08 08:14:10;;;;;;;13.80;1.90;;;9.10;99.90;;;;;;5091393;28;20141;-71
2022/02/08 08:19:19;;;;;;;12.70;2.58;;;9.20;99.90;;;;;;5091081;28;20507;-71
2022/02/08 08:21:46;;;;;;;7.30;1.67;;;9.10;99.90;;;;;;5091005;28;20048;-71
2022/02/08 08:24:13;;;;;;;10.25;2.10;;;9.20;99.90;;;;;;5090950;28;20040;-71
2022/02/08 08:26:39;;;;;;;12.02;3.00;;;9.30;99.90;;;;;;5090818;28;20075;-71
2022/02/08 08:29:05;;;;;;;11.38;2.38;;;9.30;99.90;;;;;;5090856;28;20044;-71
2022/02/08 08:31:31;;;;;;;11.05;2.33;;;9.30;99.90;;;;;;5090876;28;20058;-71
2022/02/08 08:33:57;;;;;;;11.95;1.80;;;9.30;99.90;;;;;;5090568;28;20489;-71
2022/02/08 08:36:23;;;;;;;10.82;2.20;;;9.40;99.90;;;;;;5090751;28;20044;-71
2022/02/08 08:38:52;;;;;;;10.00;2.45;;;9.40;99.90;;;;;;5090821;28;20052;-71
2022/02/08 08:41:33;;;;;;;13.60;2.20;;;9.30;99.90;;;;;;5090350;28;20055;-71
2022/02/08 08:49:33;;;;;;;11.65;2.28;;;9.40;99.90;;;;;;5110583;28;20051;-71
2022/02/08 08:51:59;;;;;;;7.22;2.13;;;9.40;99.90;;;;;;5110571;28;20051;-71
2022/02/08 08:54:25;;;;;;;6.85;1.63;;;9.40;99.90;;;;;;5111105;28;20069;-71
2022/02/08 08:56:51;;;;;;;12.32;3.10;;;9.50;99.90;;;;;;5111104;28;20044;-71
2022/02/08 08:59:18;;;;;;;12.40;2.40;;;9.40;99.90;;;;;;5130581;27;20046;-71
2022/02/08 09:01:45;;;;;;;9.95;2.08;;;9.40;99.90;;;;;;5113867;27;20039;-71
2022/02/08 09:04:11;;;;;;;10.88;2.22;;;9.50;99.90;;;;;;5110725;28;20047;-71
2022/02/08 09:06:37;;;;;;;12.07;2.03;;;9.40;99.90;;;;;;5110566;28;20055;-71
2022/02/08 09:09:07;;;;;;;8.57;1.95;;;9.40;99.90;;;;;;5089537;28;20378;-71
2022/02/08 09:11:51;;;;;;;11.63;2.45;;;9.40;99.90;;;;;;5090365;28;20485;-71
2022/02/08 09:14:19;;;;;;;10.75;2.40;;;9.40;99.90;;;;;;5090572;28;20085;-72
2022/02/08 09:19:53;;;;;;;12.57;2.97;;;9.50;99.90;;;;;;5090069;28;20051;-71
2022/02/08 09:22:37;;;;;;;13.80;2.40;;;9.50;99.90;;;;;;5089987;28;20040;-71
2022/02/08 09:30:16;;;;;;;13.02;2.33;;;9.60;99.90;;;;;;5090038;28;20040;-71
2022/02/08 09:32:53;;;;;;;12.30;2.28;;;9.70;99.90;;;;;;5090010;28;20076;-71
2022/02/08 09:35:20;;;;;;;8.20;2.50;;;9.70;99.90;;;;;;5090035;28;20118;-71
2022/02/08 09:37:46;;;;;;;10.98;2.90;;;9.70;99.90;;;;;;5089932;28;20055;-71
2022/02/08 09:40:21;;;;;;;13.30;2.67;;;9.70;99.90;;;;;;5073399;28;20637;-71
2022/02/08 09:42:48;;;;;;;10.57;2.30;;;9.70;99.90;;;;;;5090007;28;20169;-71
2022/02/08 09:45:20;;;;;;;6.38;2.08;;;9.90;99.90;;;;;;5109956;28;20058;-71
2022/02/08 09:47:55;;;;;;;10.13;2.38;;;9.90;99.90;;;;;;5097388;28;20043;-71
2022/02/08 09:50:26;;;;;;;12.18;2.42;;;9.90;99.90;;;;;;5097266;28;20493;-71
2022/02/08 09:52:56;;;;;;;10.55;2.05;;;10.00;99.90;;;;;;5114212;28;20039;-71
2022/02/08 09:55:23;;;;;;;7.85;2.20;;;9.90;99.90;;;;;;5114238;28;20046;-71
2022/02/08 09:57:49;;;;;;;13.68;2.03;;;10.00;99.90;;;;;;5121269;27;20083;-71
2022/02/08 10:00:16;;;;;;;9.15;1.80;;;10.00;99.90;;;;;;5114080;28;20518;-71
2022/02/08 10:02:42;;;;;;;7.78;2.17;;;10.00;99.90;;;;;;5114045;28;20051;-71
2022/02/08 10:05:08;;;;;;;11.07;2.05;;;10.10;99.90;;;;;;5113920;28;20035;-71
2022/02/08 10:07:35;;;;;;;11.27;2.03;;;10.10;99.90;;;;;;5114188;28;20370;-71
2022/02/08 10:10:10;;;;;;;8.57;1.95;;;10.00;99.90;;;;;;5114244;28;20459;-71
2022/02/08 10:23:36;;;;;;;10.13;2.00;;;10.10;99.90;;;;;;5113760;28;20044;-71
2022/02/08 10:26:07;;;;;;;7.75;1.92;;;10.20;99.90;;;;;;5113715;28;20040;-71
2022/02/08 10:29:01;;;;;;;12.23;2.72;;;10.20;99.90;;;;;;5113555;28;20043;-71
2022/02/08 10:40:19;;;;;;;7.07;1.73;;;10.30;99.90;;;;;;5113288;28;20063;-71
2022/02/08 10:42:56;;;;;;;9.73;1.90;;;10.40;99.90;;;;;;5100789;28;20473;-71
2022/02/08 10:45:28;;;;;;;12.45;2.22;;;10.40;99.90;;;;;;5093085;28;20046;-71
2022/02/08 10:47:57;;;;;;;10.55;2.30;;;10.40;99.90;;;;;;5075997;28;20051;-71
2022/02/08 10:50:24;;;;;;;11.55;2.72;;;10.50;99.90;;;;;;5109752;28;20044;-71
2022/02/08 10:52:50;;;;;;;8.75;1.58;;;10.50;99.90;;;;;;5092954;28;20043;-71
2022/02/08 10:55:40;;;;;;;10.68;2.30;;;10.50;99.90;;;;;;5092871;28;20424;-71
2022/02/08 11:03:16;;;;;;;8.13;2.70;;;10.60;99.90;;;;;;5112947;28;20043;-71
2022/02/08 11:05:59;;;;;;;8.70;2.08;;;10.60;99.90;;;;;;5095722;28;20122;-71
2022/02/08 11:08:47;;;;;;;9.55;2.10;;;10.70;99.90;;;;;;5114206;27;20079;-71
2022/02/08 11:16:32;;;;;;;11.10;2.33;;;10.60;99.90;;;;;;5112870;28;20046;-71
2022/02/08 11:24:41;;;;;;;9.13;1.85;;;10.50;99.90;;;;;;5104039;28;20048;-71
2022/02/08 11:27:11;;;;;;;11.50;2.10;;;10.60;99.90;;;;;;5092176;28;20051;-71
2022/02/08 11:29:48;;;;;;;10.07;2.75;;;10.50;99.90;;;;;;5092014;28;20036;-71
2022/02/08 11:32:39;;;;;;;11.10;2.50;;;10.50;99.90;;;;;;5092466;28;20354;-72
2022/02/08 11:44:06;;;;;;;9.90;1.73;;;10.50;99.90;;;;;;5092034;28;20048;-71
2022/02/08 11:47:00;;;;;;;9.63;1.92;;;10.50;99.90;;;;;;5091320;28;20056;-71
2022/02/08 11:55:30;;;;;;;10.93;2.00;;;10.50;99.90;;;;;;5091206;28;20044;-71
2022/02/08 12:00:46;;;;;;;5.57;1.35;;;10.60;99.90;;;;;;5126409;27;19939;-71
2022/02/08 12:06:00;;;;;;;11.55;1.92;;;10.50;99.90;;;;;;5111436;28;20779;-71
2022/02/08 12:08:26;;;;;;;7.47;1.88;;;10.50;99.90;;;;;;5111025;28;20062;-71
2022/02/08 12:11:06;;;;;;;8.57;1.77;;;10.60;99.90;;;;;;5094585;28;20399;-72
2022/02/08 12:32:41;;;;;;;9.40;1.90;;;10.50;99.90;;;;;;5111408;28;20050;-71
2022/02/08 12:35:32;;;;;;;8.77;1.73;;;10.50;99.90;;;;;;5094206;28;20071;-71
2022/02/08 13:02:53;;;;;;;7.55;1.60;;;10.60;99.90;;;;;;5110057;28;20130;-71
2022/02/08 13:19:59;;;;;;;11.75;2.63;;;10.60;99.90;;;;;;5110068;28;20052;-71
2022/02/08 13:32:28;;;;;;;8.32;1.90;;;10.60;99.90;;;;;;5111183;28;20043;-71
2022/02/08 14:04:07;;;;;;;10.35;1.73;;;10.60;99.90;;;;;;5109753;28;20089;-71
2022/02/08 14:06:26;;;;;;;13.18;2.53;;;10.70;99.90;;;;;;5109803;28;20062;-71
2022/02/08 14:11:54;;;;;;;6.03;1.45;;;10.70;99.90;;;;;;5109970;28;20046;-71
2022/02/08 14:14:32;;;;;;;14.45;2.85;;;10.70;99.90;;;;;;5092870;28;20036;-71
2022/02/08 14:20:27;;;;;;;12.73;2.03;;;10.60;99.90;;;;;;5110085;28;20436;-72
2022/02/08 14:30:31;;;;;;;11.80;2.00;;;10.60;99.90;;;;;;5068257;28;20040;-71
2022/02/08 14:33:13;;;;;;;9.70;1.42;;;10.60;99.90;;;;;;5113398;28;20043;-71
2022/02/08 14:49:56;;;;;;;6.05;1.77;;;10.50;99.90;;;;;;5092649;28;20036;-71
2022/02/08 15:00:38;;;;;;;9.98;2.15;;;10.40;99.90;;;;;;5127009;27;20040;-71
2022/02/08 15:06:03;;;;;;;7.70;2.13;;;10.40;99.90;;;;;;5112827;28;20051;-71
2022/02/08 15:08:32;;;;;;;8.95;2.22;;;10.40;99.90;;;;;;5112712;28;20040;-71
2022/02/08 15:11:05;;;;;;;11.68;2.72;;;10.30;99.90;;;;;;5095988;28;20074;-72
2022/02/08 15:13:31;;;;;;;11.68;2.42;;;10.30;99.90;;;;;;5112953;28;20421;-71
2022/02/08 15:18:23;;;;;;;9.45;2.03;;;10.40;99.90;;;;;;5112547;28;20066;-71
2022/02/08 15:20:48;;;;;;;11.60;2.40;;;10.40;99.90;;;;;;5112864;28;20039;-72
2022/02/08 15:23:18;;;;;;;9.93;2.58;;;10.40;99.90;;;;;;5112672;28;20116;-72
2022/02/08 15:25:43;;;;;;;11.27;2.60;;;10.40;99.90;;;;;;5112560;28;20050;-72
2022/02/08 15:28:09;;;;;;;9.18;2.47;;;10.40;99.90;;;;;;5113992;28;20035;-71
2022/02/08 15:30:35;;;;;;;7.65;1.85;;;10.40;99.90;;;;;;5112389;28;20461;-72
2022/02/08 15:33:05;;;;;;;6.70;1.38;;;10.30;99.90;;;;;;5112414;28;20035;-71
2022/02/08 15:35:31;;;;;;;12.57;1.98;;;10.30;99.90;;;;;;5095332;28;20471;-71
2022/02/08 15:37:57;;;;;;;9.07;1.95;;;10.30;99.90;;;;;;5112289;28;20031;-71
2022/02/08 15:40:24;;;;;;;9.07;2.03;;;10.30;99.90;;;;;;5112022;28;20044;-71
2022/02/08 15:42:50;;;;;;;11.23;2.35;;;10.30;99.90;;;;;;5094034;28;20071;-71
2022/02/08 15:45:35;;;;;;;10.73;2.42;;;10.30;99.90;;;;;;5092898;28;20078;-71
2022/02/08 15:48:01;;;;;;;9.05;2.42;;;10.30;99.90;;;;;;5091746;28;20115;-71
2022/02/08 15:50:50;;;;;;;12.60;2.30;;;10.30;99.90;;;;;;5091493;28;20596;-71
2022/02/08 15:53:32;;;;;;;10.13;2.53;;;10.20;99.90;;;;;;5091794;28;20043;-71
2022/02/08 16:08:55;;;;;;;12.20;2.22;;;10.20;99.90;;;;;;5111821;28;20409;-71
2022/02/08 16:11:42;;;;;;;13.10;2.03;;;10.10;99.90;;;;;;5094642;28;20491;-71
2022/02/08 16:14:33;;;;;;;7.75;1.95;;;10.10;99.90;;;;;;5111775;28;20400;-71
2022/02/08 16:19:50;;;;;;;14.80;2.72;;;10.10;99.90;;;;;;5090938;28;20055;-71
2022/02/08 16:49:20;;;;;;;11.80;2.50;;;9.90;99.90;;;;;;5099725;28;20048;-70
2022/02/08 16:57:15;;;;;;;9.70;2.70;;;9.90;99.90;;;;;;5099760;28;20489;-70
2022/02/08 16:59:43;;;;;;;10.77;2.47;;;9.90;99.90;;;;;;5096434;28;20417;-70
2022/02/08 17:02:09;;;;;;;14.65;3.03;;;9.90;99.90;;;;;;5092333;28;20120;-70
2022/02/08 17:04:35;;;;;;;20.40;6.35;;;9.90;99.90;;;;;;5093330;28;20078;-70
2022/02/08 17:07:04;;;;;;;11.80;2.47;;;9.90;99.90;;;;;;5099279;28;20075;-69
2022/02/08 17:09:46;;;;;;;10.60;2.42;;;9.90;99.90;;;;;;5097663;28;20424;-70
2022/02/08 17:12:26;;;;;;;8.90;2.40;;;9.90;99.90;;;;;;5097774;28;20074;-70
2022/02/08 17:15:10;;;;;;;16.08;3.05;;;10.00;99.90;;;;;;5105778;28;20085;-70
2022/02/08 17:49:54;;;;;;;14.52;3.33;;;9.70;99.90;;;;;;5090246;28;20055;-70
2022/02/08 17:52:20;;;;;;;11.73;3.40;;;9.60;99.90;;;;;;5094326;28;20079;-70
2022/02/08 17:54:46;;;;;;;14.55;3.55;;;9.60;99.90;;;;;;5092674;28;20507;-70
2022/02/08 17:57:13;;;;;;;23.42;4.35;;;9.50;99.90;;;;;;5096976;28;20168;-70
2022/02/08 17:59:39;;;;;;;13.52;3.25;;;9.40;99.90;;;;;;5104561;28;20055;-70
2022/02/08 18:02:06;;;;;;;14.68;3.50;;;9.40;99.90;;;;;;5086516;28;20032;-70
2022/02/08 18:04:32;;;;;;;14.88;3.33;;;9.40;99.90;;;;;;5094776;28;20389;-70
2022/02/08 18:06:59;;;;;;;15.98;3.65;;;9.30;99.90;;;;;;5112121;27;20180;-70
2022/02/08 18:09:27;;;;;;;16.33;3.97;;;9.30;99.90;;;;;;5101657;28;20532;-70
2022/02/08 18:11:55;;;;;;;16.75;6.30;;;9.20;99.90;;;;;;5102118;28;20048;-70
2022/02/08 18:14:21;;;;;;;15.07;5.50;;;9.20;99.90;;;;;;5105311;28;20040;-70
2022/02/08 18:17:01;;;;;;;18.13;5.13;;;9.30;99.90;;;;;;5113319;27;20110;-70
2022/02/08 18:19:32;;;;;;;12.13;4.85;;;9.20;99.90;;;;;;5101176;28;20196;-70
2022/02/08 18:22:19;;;;;;;13.52;3.83;;;9.20;99.90;;;;;;5096556;28;20188;-70
2022/02/08 18:55:50;;;;;;;11.18;3.05;;;9.30;99.90;;;;;;5102897;28;20052;-70
2022/02/08 18:57:48;;;;;;;11.65;2.92;;;9.30;99.90;;;;;;5106221;28;20152;-70
2022/02/08 19:11:44;;;;;;;14.85;3.30;;;9.20;99.90;;;;;;5046677;28;20041;-70
2022/02/08 19:17:00;;;;;;;13.00;4.10;;;9.20;99.90;;;;;;5045794;28;20040;-70
2022/02/08 19:19:48;;;;;;;11.05;2.80;;;9.20;99.90;;;;;;5048476;28;20044;-71
2022/02/08 19:22:16;;;;;;;11.32;2.55;;;9.20;99.90;;;;;;5044994;28;20352;-71
2022/02/08 19:24:42;;;;;;;11.23;3.03;;;9.20;99.90;;;;;;5049864;28;20474;-71
2022/02/08 19:27:08;;;;;;;11.65;3.20;;;9.20;99.90;;;;;;5052055;28;20048;-71
2022/02/08 19:29:35;;;;;;;12.70;3.10;;;9.30;99.90;;;;;;5043794;28;20068;-71
2022/02/08 19:32:08;;;;;;;9.60;2.83;;;9.30;99.90;;;;;;5050434;28;20041;-71
2022/02/08 19:34:36;;;;;;;14.82;4.28;;;9.30;99.90;;;;;;5051160;28;20068;-71
2022/02/08 19:37:06;;;;;;;10.82;2.75;;;9.30;99.90;;;;;;5050466;28;20094;-71
2022/02/08 19:39:32;;;;;;;9.25;2.95;;;9.30;99.90;;;;;;5041233;28;20043;-70
2022/02/08 19:41:59;;;;;;;13.57;2.83;;;9.40;99.90;;;;;;5047241;28;20474;-70
2022/02/08 19:44:25;;;;;;;9.95;2.50;;;9.40;99.90;;;;;;5050559;28;20041;-70
2022/02/08 19:46:50;;;;;;;13.82;3.40;;;9.40;99.90;;;;;;5045123;28;20466;-70
2022/02/08 19:49:16;;;;;;;12.70;2.95;;;9.40;99.90;;;;;;5048396;28;20072;-70
2022/02/08 19:51:42;;;;;;;10.02;2.72;;;9.40;99.90;;;;;;5039596;28;20033;-70
2022/02/08 19:54:11;;;;;;;10.15;2.88;;;9.40;99.90;;;;;;5050209;28;20068;-70
2022/02/08 19:56:46;;;;;;;14.98;4.15;;;9.40;99.90;;;;;;5047812;28;20083;-70
2022/02/08 19:59:18;;;;;;;12.43;3.22;;;9.40;99.90;;;;;;5039805;28;20410;-70
2022/02/08 20:01:48;;;;;;;8.88;3.40;;;9.40;99.90;;;;;;5050209;28;20410;-70
2022/02/08 20:04:18;;;;;;;8.70;3.25;;;9.40;99.90;;;;;;5051080;28;20044;-70
2022/02/08 20:06:45;;;;;;;11.02;3.88;;;9.40;99.90;;;;;;5051214;28;20052;-70